Impacts TAF Board
For situational awareness. Not to be used for flight planning purposes.
IDs:

KIAH - Houston/Bush Intl, TX, US

Issued at 0526 UTC 23 Feb 2019
Updated at 0627 UTC 23 Feb 2019
Potential Impact None Slight Moderate High
Time0553Z 23/07Z 23/08Z 23/09Z 23/10Z 23/11Z 23/12Z 23/13Z 23/14Z 23/15Z 23/16Z 23/17Z 23/18Z 23/19Z>>
Type OBS PRVL PRVL PRVL PRVL PRVL PRVL PRVL PRVL PRVL
  [TEMP]  
PRVL
  [TEMP]  
PRVL PRVL PRVL
VIS 0.25 1 0.25 0.25 0.25 0.25 0.25 0.25 0.25 1 1 >6 >6 >6
CIG 2 2 2 2 2 2 2 2 2 6
  [6]  
6
  [6]  
50 50 250
Cover OVC OVC OVX OVX OVX OVX OVX OVX OVX OVC
  [OVC]  
OVC
  [OVC]  
BKN BKN BKN
FltCat LIFR LIFR LIFR LIFR LIFR LIFR LIFR LIFR LIFR IFR
  [IFR]  
IFR
  [IFR]  
VFR VFR VFR
WX -DZ BR -DZ BR FG FG FG FG FG FG FG -SHRA BR VCTS
  [TSRA]  
-SHRA BR VCTS
  [TSRA]  
-- -- --
WDir 170 150 140 140 140 140 140 140 140 210
[210]
210
[210]
290 290 300
WSpd 7 6 5 5 5 5 5 5 5 8
  [8]  
8
  [8]  
13 13 13
WGst -- -- -- -- -- -- -- -- -- 15
  [15]  
15
  [15]  
23 23 23
Raw TAF
KIAH 230526Z 2306/2412 15006KT 1SM -DZ BR OVC002
  FM230800 14005KT 1/4SM FG VV002
  FM231500 21008G15KT 1SM -SHRA BR VCTS OVC006CB
  TEMPO 2315/2317 TSRA
  FM231700 29013G23KT P6SM SCT020 BKN050 BKN250
  FM231900 30013G23KT P6SM SCT050 BKN250
  FM240300 25005KT P6SM SCT250
  FM240900 33008KT P6SM SCT250


Raw METAR
KIAH 230553Z 17007KT 1/4SM -DZ BR OVC002 21/21 A2986 RMK AO2 SFC VIS 1 1/2 SLP111 P0000 60000 T02110211 10217 20183 402170100 58009
KIAH 230453Z 16007KT 1/2SM -DZ BR OVC002 21/21 A2987 RMK AO2 SFC VIS 1 1/4 DZB51 SLP115 P0000 T02110211
KIAH 230353Z 17007KT 1/2SM BR OVC003 22/22 A2987 RMK AO2 SFC VIS 2 1/2 SLP116 T02170217
KIAH 230341Z 16006KT 1/2SM BR BKN003 OVC008 22/22 A2987 RMK AO2 SFC VIS 3 T02170217

METAR Board
Radar Display
Forecast Discussion
For situational awareness. Not to be used for flight planning purposes.